Time,TemperatureF,DewpointF,PressureIn,WindDirection,WindDirectionDegrees,WindSpeedMPH,WindSpeedGustMPH,Humidity,HourlyPrecipIn,Conditions,Clouds,dailyrainin,SoftwareType,DateUTC
2013-03-08 00:03:00,27.3,19.7,28.14,ENE,68,0.0,2.0,70,0.00,,,0.00,WSDL version 423,2013-03-08 05:03:00,
2013-03-08 00:08:00,27.1,19.8,28.14,ENE,68,0.0,0.0,70,0.00,,,0.00,WSDL version 423,2013-03-08 05:08:00,
2013-03-08 00:13:00,27.1,19.6,28.14,East,90,0.3,2.0,70,0.00,,,0.00,WSDL version 423,2013-03-08 05:13:00,
2013-03-08 00:18:00,27.2,20.1,28.14,ESE,115,1.2,2.0,73,0.00,,,0.00,WSDL version 423,2013-03-08 05:18:00,
2013-03-08 00:23:00,27.4,20.8,28.14,SSE,158,0.0,2.0,73,0.00,,,0.00,WSDL version 423,2013-03-08 05:23:00,
2013-03-08 00:28:00,27.3,20.4,28.14,SSE,158,0.0,1.6,72,0.00,,,0.00,WSDL version 423,2013-03-08 05:28:00,
2013-03-08 00:33:00,27.0,20.1,28.14,SSE,158,0.0,0.0,72,0.00,,,0.00,WSDL version 423,2013-03-08 05:33:00,
2013-03-08 00:43:00,26.7,19.8,28.14,SSE,158,0.0,0.0,73,0.00,,,0.00,WSDL version 423,2013-03-08 05:43:00,
2013-03-08 00:48:00,26.5,19.7,28.14,SSE,158,0.0,0.0,73,0.00,,,0.00,WSDL version 423,2013-03-08 05:48:00,
2013-03-08 00:53:00,26.3,19.5,28.14,SE,128,0.0,0.0,72,0.00,,,0.00,WSDL version 423,2013-03-08 05:53:00,
2013-03-08 00:58:00,26.2,19.5,28.14,NNW,329,0.0,0.0,73,0.00,,,0.00,WSDL version 423,2013-03-08 05:58:00,
2013-03-08 01:03:00,26.2,19.7,28.14,NW,315,0.0,0.0,74,0.00,,,0.00,WSDL version 423,2013-03-08 06:03:00,
2013-03-08 01:08:00,26.2,19.9,28.14,NW,315,0.0,0.0,74,0.00,,,0.00,WSDL version 423,2013-03-08 06:08:00,
2013-03-08 01:13:00,26.1,19.7,28.14,SW,225,0.0,0.0,73,0.00,,,0.00,WSDL version 423,2013-03-08 06:13:00,
2013-03-08 01:18:00,26.1,19.6,28.14,SSW,203,0.0,0.0,74,0.00,,,0.00,WSDL version 423,2013-03-08 06:18:00,
2013-03-08 01:23:00,26.1,19.7,28.14,SSW,203,0.0,0.0,74,0.00,,,0.00,WSDL version 423,2013-03-08 06:23:00,
2013-03-08 01:28:00,25.9,19.3,28.14,SSW,197,0.0,0.0,73,0.00,,,0.00,WSDL version 423,2013-03-08 06:28:00,
2013-03-08 01:33:00,25.9,19.5,28.17,South,180,0.0,0.0,74,0.00,,,0.00,WSDL version 423,2013-03-08 06:33:00,
2013-03-08 01:38:00,25.9,19.5,28.17,South,180,0.0,0.0,74,0.00,,,0.00,WSDL version 423,2013-03-08 06:38:00,
2013-03-08 01:43:00,25.8,19.3,28.17,South,180,0.0,0.0,73,0.00,,,0.00,WSDL version 423,2013-03-08 06:43:00,
2013-03-08 01:48:00,25.6,19.3,28.17,ENE,68,0.0,0.0,74,0.00,,,0.00,WSDL version 423,2013-03-08 06:48:00,
2013-03-08 01:53:00,25.4,19.1,28.17,NNW,338,0.0,0.9,74,0.00,,,0.00,WSDL version 423,2013-03-08 06:53:00,
2013-03-08 01:58:00,25.3,19.0,28.17,East,85,0.0,0.9,74,0.00,,,0.00,WSDL version 423,2013-03-08 06:58:00,
2013-03-08 02:03:00,25.3,19.0,28.17,East,90,0.0,0.0,74,0.00,,,0.00,WSDL version 423,2013-03-08 07:03:00,
2013-03-08 02:08:00,25.3,19.2,28.17,East,90,0.0,0.0,75,0.00,,,0.00,WSDL version 423,2013-03-08 07:08:00,
2013-03-08 02:13:00,25.3,19.3,28.17,East,90,0.0,0.0,75,0.00,,,0.00,WSDL version 423,2013-03-08 07:13:00,
2013-03-08 02:18:00,25.1,18.8,28.14,East,90,0.0,0.0,74,0.00,,,0.00,WSDL version 423,2013-03-08 07:18:00,
2013-03-08 02:23:00,25.0,18.8,28.14,East,90,0.0,0.0,75,0.00,,,0.00,WSDL version 423,2013-03-08 07:23:00,
2013-03-08 02:28:00,24.8,18.8,28.14,NE,56,0.6,1.3,75,0.00,,,0.00,WSDL version 423,2013-03-08 07:28:00,
2013-03-08 02:33:00,24.8,18.8,28.17,East,95,0.0,1.3,75,0.00,,,0.00,WSDL version 423,2013-03-08 07:33:00,
2013-03-08 02:38:00,24.8,18.8,28.17,ENE,68,0.0,0.9,75,0.00,,,0.00,WSDL version 423,2013-03-08 07:38:00,
2013-03-08 02:43:00,24.8,19.0,28.17,NW,326,0.0,0.0,76,0.00,,,0.00,WSDL version 423,2013-03-08 07:43:00,
2013-03-08 02:48:00,24.8,19.0,28.17,WNW,293,0.0,0.0,76,0.00,,,0.00,WSDL version 423,2013-03-08 07:48:00,
2013-03-08 02:53:00,24.6,18.7,28.17,WNW,293,0.0,0.0,76,0.00,,,0.00,WSDL version 423,2013-03-08 07:53:00,
2013-03-08 02:58:00,24.4,18.7,28.17,NW,315,0.0,0.0,76,0.00,,,0.00,WSDL version 423,2013-03-08 07:58:00,
2013-03-08 03:03:00,24.4,18.7,28.17,North,11,0.0,0.0,76,0.00,,,0.00,WSDL version 423,2013-03-08 08:03:00,
2013-03-08 03:08:00,24.4,18.7,28.17,North,3,0.0,0.0,76,0.00,,,0.00,WSDL version 423,2013-03-08 08:08:00,
2013-03-08 03:13:00,24.4,18.8,28.17,NNW,338,0.0,0.0,77,0.00,,,0.00,WSDL version 423,2013-03-08 08:13:00,
2013-03-08 03:18:00,24.3,18.7,28.17,East,90,0.0,0.0,76,0.00,,,0.00,WSDL version 423,2013-03-08 08:18:00,
2013-03-08 03:23:00,24.3,18.8,28.17,East,90,0.7,1.1,77,0.00,,,0.00,WSDL version 423,2013-03-08 08:23:00,
2013-03-08 03:28:00,24.3,18.7,28.17,East,90,0.0,1.1,76,0.00,,,0.00,WSDL version 423,2013-03-08 08:28:00,
2013-03-08 03:33:00,24.3,18.6,28.17,ESE,113,0.0,0.0,77,0.00,,,0.00,WSDL version 423,2013-03-08 08:33:00,
2013-03-08 03:38:00,24.3,18.8,28.17,SE,135,0.0,0.0,77,0.00,,,0.00,WSDL version 423,2013-03-08 08:38:00,
2013-03-08 03:43:00,24.3,18.8,28.17,SE,135,0.0,0.0,77,0.00,,,0.00,WSDL version 423,2013-03-08 08:43:00,
2013-03-08 03:48:00,24.2,18.8,28.17,East,100,0.0,0.0,77,0.00,,,0.00,WSDL version 423,2013-03-08 08:48:00,
2013-03-08 03:53:00,24.1,18.4,28.17,North,357,0.0,0.0,76,0.00,,,0.00,WSDL version 423,2013-03-08 08:53:00,
2013-03-08 03:58:00,23.9,18.2,28.17,NW,315,0.0,0.0,76,0.00,,,0.00,WSDL version 423,2013-03-08 08:58:00,
2013-03-08 04:03:00,23.8,18.1,28.17,East,90,0.0,0.0,76,0.00,,,0.00,WSDL version 423,2013-03-08 09:03:00,
2013-03-08 04:08:00,23.7,18.0,28.17,East,90,0.0,0.0,76,0.00,,,0.00,WSDL version 423,2013-03-08 09:08:00,
2013-03-08 04:13:00,23.7,18.0,28.17,East,90,0.0,0.0,76,0.00,,,0.00,WSDL version 423,2013-03-08 09:13:00,
2013-03-08 04:18:00,23.7,18.0,28.17,East,90,0.0,0.0,76,0.00,,,0.00,WSDL version 423,2013-03-08 09:18:00,
2013-03-08 04:23:00,23.7,18.0,28.17,East,90,0.0,0.0,76,0.00,,,0.00,WSDL version 423,2013-03-08 09:23:00,
2013-03-08 04:28:00,23.7,18.0,28.17,East,90,0.0,0.0,76,0.00,,,0.00,WSDL version 423,2013-03-08 09:28:00,
2013-03-08 04:33:00,23.6,18.2,28.17,East,90,0.0,0.0,77,0.00,,,0.00,WSDL version 423,2013-03-08 09:33:00,
2013-03-08 04:38:00,23.5,18.1,28.17,East,90,0.0,0.0,77,0.00,,,0.00,WSDL version 423,2013-03-08 09:38:00,
2013-03-08 04:43:00,23.5,18.1,28.17,SSE,158,0.0,0.0,77,0.00,,,0.00,WSDL version 423,2013-03-08 09:43:00,
2013-03-08 04:48:00,23.5,18.1,28.17,SSE,158,0.0,0.0,77,0.00,,,0.00,WSDL version 423,2013-03-08 09:48:00,
2013-03-08 04:53:00,23.6,18.1,28.17,SSE,158,0.0,0.0,77,0.00,,,0.00,WSDL version 423,2013-03-08 09:53:00,
2013-03-08 04:58:00,23.5,18.1,28.17,SSE,158,0.0,0.0,77,0.00,,,0.00,WSDL version 423,2013-03-08 09:58:00,
2013-03-08 05:03:00,23.5,18.1,28.17,SSE,155,0.0,0.0,77,0.00,,,0.00,WSDL version 423,2013-03-08 10:03:00,
2013-03-08 05:08:00,23.4,17.8,28.17,ESE,113,0.4,1.6,76,0.00,,,0.00,WSDL version 423,2013-03-08 10:08:00,
2013-03-08 05:13:00,23.3,17.6,28.17,SSE,158,0.0,1.6,76,0.00,,,0.00,WSDL version 423,2013-03-08 10:13:00,
2013-03-08 05:18:00,23.2,17.5,28.17,SSE,158,0.0,0.0,76,0.00,,,0.00,WSDL version 423,2013-03-08 10:18:00,
2013-03-08 05:23:00,23.1,17.6,28.17,SSE,158,0.0,0.0,77,0.00,,,0.00,WSDL version 423,2013-03-08 10:23:00,
2013-03-08 05:28:00,23.0,17.6,28.17,SSE,158,0.0,0.0,77,0.00,,,0.00,WSDL version 423,2013-03-08 10:28:00,
2013-03-08 05:33:00,22.9,17.4,28.17,SSE,158,0.0,0.0,77,0.00,,,0.00,WSDL version 423,2013-03-08 10:33:00,
2013-03-08 05:38:00,22.8,17.1,28.17,SSE,158,0.0,0.0,76,0.00,,,0.00,WSDL version 423,2013-03-08 10:38:00,
2013-03-08 05:43:00,22.6,16.9,28.17,SSE,158,0.0,0.0,76,0.00,,,0.00,WSDL version 423,2013-03-08 10:43:00,
2013-03-08 05:48:00,22.6,17.1,28.17,SSE,158,0.0,0.0,77,0.00,,,0.00,WSDL version 423,2013-03-08 10:48:00,
2013-03-08 05:53:00,22.6,17.2,28.17,North,8,0.0,0.0,77,0.00,,,0.00,WSDL version 423,2013-03-08 10:53:00,
2013-03-08 05:58:00,22.6,17.2,28.17,NNW,338,0.0,0.0,77,0.00,,,0.00,WSDL version 423,2013-03-08 10:58:00,
2013-03-08 06:03:00,22.6,17.2,28.20,NNW,338,0.0,0.0,77,0.00,,,0.00,WSDL version 423,2013-03-08 11:03:00,
2013-03-08 06:08:00,22.5,17.0,28.20,NNW,338,0.0,0.0,77,0.00,,,0.00,WSDL version 423,2013-03-08 11:08:00,
2013-03-08 06:13:00,22.5,17.0,28.20,NNW,338,0.0,0.0,77,0.00,,,0.00,WSDL version 423,2013-03-08 11:13:00,
2013-03-08 06:18:00,22.4,17.0,28.17,NNW,338,0.0,0.0,77,0.00,,,0.00,WSDL version 423,2013-03-08 11:18:00,
2013-03-08 06:23:00,22.3,16.9,28.17,ENE,68,0.0,0.0,77,0.00,,,0.00,WSDL version 423,2013-03-08 11:23:00,
2013-03-08 06:28:00,22.3,16.9,28.17,South,180,0.0,0.0,77,0.00,,,0.00,WSDL version 423,2013-03-08 11:28:00,
2013-03-08 06:33:00,22.3,16.9,28.20,South,180,0.0,0.0,77,0.00,,,0.00,WSDL version 423,2013-03-08 11:33:00,
2013-03-08 06:38:00,22.1,16.7,28.20,South,180,0.0,0.0,77,0.00,,,0.00,WSDL version 423,2013-03-08 11:38:00,
2013-03-08 06:43:00,22.1,16.7,28.20,South,180,0.0,0.0,77,0.00,,,0.00,WSDL version 423,2013-03-08 11:43:00,
2013-03-08 06:48:00,22.1,16.7,28.20,South,180,0.0,0.0,77,0.00,,,0.00,WSDL version 423,2013-03-08 11:48:00,
2013-03-08 06:53:00,22.1,16.7,28.20,South,180,0.0,0.0,77,0.00,,,0.00,WSDL version 423,2013-03-08 11:53:00,
2013-03-08 06:58:00,22.1,16.7,28.20,South,180,0.0,0.0,77,0.00,,,0.00,WSDL version 423,2013-03-08 11:58:00,
2013-03-08 07:03:00,22.1,16.7,28.20,South,180,0.0,0.0,77,0.00,,,0.00,WSDL version 423,2013-03-08 12:03:00,
2013-03-08 07:08:00,22.1,16.7,28.20,South,180,0.0,0.0,77,0.00,,,0.00,WSDL version 423,2013-03-08 12:08:00,
2013-03-08 07:13:00,21.9,16.3,28.20,South,180,0.0,0.0,76,0.00,,,0.00,WSDL version 423,2013-03-08 12:13:00,
2013-03-08 07:18:00,21.9,16.3,28.20,South,180,0.0,0.0,77,0.00,,,0.00,WSDL version 423,2013-03-08 12:18:00,
2013-03-08 07:23:00,21.7,16.3,28.20,South,180,0.0,0.0,77,0.00,,,0.00,WSDL version 423,2013-03-08 12:23:00,
2013-03-08 07:28:00,21.9,16.6,28.20,South,180,0.0,0.0,78,0.00,,,0.00,WSDL version 423,2013-03-08 12:28:00,
2013-03-08 07:38:00,21.9,16.5,28.20,NNW,338,0.0,0.0,77,0.00,,,0.00,WSDL version 423,2013-03-08 12:38:00,
2013-03-08 07:43:00,22.1,16.9,28.20,NNW,338,0.0,0.0,77,0.00,,,0.00,WSDL version 423,2013-03-08 12:43:00,
2013-03-08 07:53:00,22.3,17.0,28.23,WNW,293,0.0,0.0,78,0.00,,,0.00,WSDL version 423,2013-03-08 12:53:00,
2013-03-08 07:58:00,22.5,17.3,28.23,West,270,0.0,0.0,78,0.00,,,0.00,WSDL version 423,2013-03-08 12:58:00,
2013-03-08 08:03:00,22.7,17.5,28.20,WSW,248,0.0,0.0,78,0.00,,,0.00,WSDL version 423,2013-03-08 13:03:00,
2013-03-08 08:08:00,22.8,17.6,28.20,WSW,248,0.0,0.0,78,0.00,,,0.00,WSDL version 423,2013-03-08 13:08:00,
2013-03-08 08:13:00,23.0,17.8,28.20,WSW,248,0.0,0.0,78,0.00,,,0.00,WSDL version 423,2013-03-08 13:13:00,
2013-03-08 08:18:00,23.3,18.1,28.20,WSW,248,0.0,0.0,78,0.00,,,0.00,WSDL version 423,2013-03-08 13:18:00,
2013-03-08 08:23:00,23.5,18.6,28.20,South,180,0.0,0.0,79,0.00,,,0.00,WSDL version 423,2013-03-08 13:23:00,
2013-03-08 08:28:00,23.8,18.8,28.20,South,180,0.0,0.0,79,0.00,,,0.00,WSDL version 423,2013-03-08 13:28:00,
2013-03-08 08:33:00,24.1,19.1,28.20,South,180,0.0,0.0,79,0.00,,,0.00,WSDL version 423,2013-03-08 13:33:00,
2013-03-08 08:38:00,24.4,19.5,28.20,South,175,0.0,1.1,79,0.00,,,0.00,WSDL version 423,2013-03-08 13:38:00,
2013-03-08 08:43:00,24.7,19.8,28.20,SE,127,0.2,1.3,79,0.00,,,0.00,WSDL version 423,2013-03-08 13:43:00,
2013-03-08 08:48:00,25.2,20.2,28.23,SSE,155,0.5,1.6,79,0.00,,,0.00,WSDL version 423,2013-03-08 13:48:00,
2013-03-08 08:53:00,25.6,20.8,28.23,SSE,163,0.0,1.6,80,0.00,,,0.00,WSDL version 423,2013-03-08 13:53:00,
2013-03-08 08:58:00,26.1,21.4,28.23,East,100,0.0,0.0,80,0.00,,,0.00,WSDL version 423,2013-03-08 13:58:00,
2013-03-08 09:03:00,26.8,22.1,28.23,East,83,0.7,1.6,80,0.00,,,0.00,WSDL version 423,2013-03-08 14:03:00,
2013-03-08 09:08:00,27.9,23.4,28.23,ESE,121,0.0,1.6,81,0.00,,,0.00,WSDL version 423,2013-03-08 14:08:00,
2013-03-08 09:13:00,28.7,24.2,28.23,SE,128,0.2,1.1,81,0.00,,,0.00,WSDL version 423,2013-03-08 14:13:00,
2013-03-08 09:18:00,29.3,24.8,28.23,SSE,158,0.0,1.1,81,0.00,,,0.00,WSDL version 423,2013-03-08 14:18:00,
2013-03-08 09:23:00,30.1,25.5,28.23,SSE,150,0.3,2.0,80,0.00,,,0.00,WSDL version 423,2013-03-08 14:23:00,
2013-03-08 09:28:00,31.1,26.5,28.23,ESE,104,0.8,2.0,81,0.00,,,0.00,WSDL version 423,2013-03-08 14:28:00,
2013-03-08 09:33:00,32.2,27.1,28.23,SSE,158,1.2,2.0,80,0.00,,,0.00,WSDL version 423,2013-03-08 14:33:00,
2013-03-08 09:38:00,33.2,27.4,28.23,SE,145,1.1,2.0,79,0.00,,,0.00,WSDL version 423,2013-03-08 14:38:00,
2013-03-08 09:43:00,33.9,27.7,28.23,SSE,158,0.2,1.6,77,0.00,,,0.00,WSDL version 423,2013-03-08 14:43:00,
2013-03-08 09:48:00,34.8,28.3,28.23,ESE,123,0.0,1.6,77,0.00,,,0.00,WSDL version 423,2013-03-08 14:48:00,
2013-03-08 09:53:00,35.5,28.3,28.23,SE,143,1.0,2.0,74,0.00,,,0.00,WSDL version 423,2013-03-08 14:53:00,
2013-03-08 09:58:00,35.8,27.6,28.23,SSW,203,0.6,2.0,71,0.00,,,0.00,WSDL version 423,2013-03-08 14:58:00,
2013-03-08 10:03:00,36.1,27.6,28.23,SE,143,0.7,2.0,72,0.00,,,0.00,WSDL version 423,2013-03-08 15:03:00,
2013-03-08 10:08:00,36.9,28.4,28.23,ENE,68,0.0,2.0,70,0.00,,,0.00,WSDL version 423,2013-03-08 15:08:00,
2013-03-08 10:18:00,38.2,28.8,28.20,SSE,158,0.3,2.0,68,0.00,,,0.00,WSDL version 423,2013-03-08 15:18:00,
2013-03-08 10:23:00,39.3,29.3,28.20,South,173,0.8,1.6,67,0.00,,,0.00,WSDL version 423,2013-03-08 15:23:00,
2013-03-08 10:28:00,40.2,28.3,28.20,SE,135,1.5,2.0,57,0.00,,,0.00,WSDL version 423,2013-03-08 15:28:00,
2013-03-08 10:33:00,41.4,26.5,28.20,ESE,113,2.1,2.9,55,0.00,,,0.00,WSDL version 423,2013-03-08 15:33:00,
2013-03-08 10:38:00,42.9,27.3,28.20,South,175,0.8,2.9,53,0.00,,,0.00,WSDL version 423,2013-03-08 15:38:00,
2013-03-08 10:43:00,43.8,27.5,28.20,East,85,1.9,2.9,51,0.00,,,0.00,WSDL version 423,2013-03-08 15:43:00,
2013-03-08 10:48:00,44.5,27.0,28.20,ESE,113,0.0,2.9,49,0.00,,,0.00,WSDL version 423,2013-03-08 15:48:00,
2013-03-08 10:53:00,45.4,27.1,28.20,SSE,160,1.1,2.5,48,0.00,,,0.00,WSDL version 423,2013-03-08 15:53:00,
2013-03-08 10:58:00,46.0,27.3,28.20,NNW,338,1.6,2.7,46,0.00,,,0.00,WSDL version 423,2013-03-08 15:58:00,
2013-03-08 11:03:00,46.5,26.1,28.23,NW,304,1.6,2.9,43,0.00,,,0.00,WSDL version 423,2013-03-08 16:03:00,
2013-03-08 11:13:00,48.0,23.9,28.23,NW,320,2.1,3.6,38,0.00,,,0.00,WSDL version 423,2013-03-08 16:13:00,
2013-03-08 11:18:00,48.7,23.5,28.20,North,6,1.5,3.4,37,0.00,,,0.00,WSDL version 423,2013-03-08 16:18:00,
2013-03-08 11:23:00,48.7,23.5,28.20,SE,140,1.1,3.4,37,0.00,,,0.00,WSDL version 423,2013-03-08 16:23:00,
2013-03-08 11:28:00,49.0,23.8,28.20,SE,138,1.6,3.4,37,0.00,,,0.00,WSDL version 423,2013-03-08 16:28:00,
2013-03-08 11:33:00,49.3,24.2,28.20,SE,125,1.9,3.6,37,0.00,,,0.00,WSDL version 423,2013-03-08 16:33:00,
2013-03-08 11:38:00,50.0,24.4,28.20,NE,34,1.5,3.6,36,0.00,,,0.00,WSDL version 423,2013-03-08 16:38:00,
2013-03-08 11:43:00,50.4,24.4,28.20,NW,325,1.5,2.9,36,0.00,,,0.00,WSDL version 423,2013-03-08 16:43:00,
2013-03-08 11:48:00,50.5,24.3,28.20,SE,143,2.2,4.0,35,0.00,,,0.00,WSDL version 423,2013-03-08 16:48:00,
2013-03-08 11:53:00,50.5,23.1,28.20,East,98,1.7,4.0,33,0.00,,,0.00,WSDL version 423,2013-03-08 16:53:00,
2013-03-08 11:58:00,50.5,23.3,28.20,WNW,293,0.7,3.4,35,0.00,,,0.00,WSDL version 423,2013-03-08 16:58:00,
2013-03-08 12:03:00,50.8,23.3,28.20,NE,48,1.2,2.7,34,0.00,,,0.00,WSDL version 423,2013-03-08 17:03:00,
2013-03-08 12:08:00,51.3,23.1,28.20,ENE,65,2.3,3.8,32,0.00,,,0.00,WSDL version 423,2013-03-08 17:08:00,
2013-03-08 12:18:00,51.5,21.5,28.20,WNW,303,2.8,4.0,30,0.00,,,0.00,WSDL version 423,2013-03-08 17:18:00,
2013-03-08 12:23:00,51.5,19.8,28.20,North,358,3.2,5.6,29,0.00,,,0.00,WSDL version 423,2013-03-08 17:23:00,
2013-03-08 12:28:00,51.8,20.3,28.20,North,354,2.0,5.6,28,0.00,,,0.00,WSDL version 423,2013-03-08 17:28:00,
2013-03-08 12:33:00,51.9,19.8,28.20,NW,320,3.0,4.3,28,0.00,,,0.00,WSDL version 423,2013-03-08 17:33:00,
2013-03-08 12:38:00,52.3,20.8,28.20,WNW,287,2.1,4.3,28,0.00,,,0.00,WSDL version 423,2013-03-08 17:38:00,
2013-03-08 12:43:00,52.8,20.7,28.20,NW,305,2.9,4.9,28,0.00,,,0.00,WSDL version 423,2013-03-08 17:43:00,
2013-03-08 12:48:00,52.8,20.5,28.20,NNE,25,2.3,4.9,27,0.00,,,0.00,WSDL version 423,2013-03-08 17:48:00,
2013-03-08 12:58:00,53.0,20.6,28.20,NW,308,2.4,4.0,27,0.00,,,0.00,WSDL version 423,2013-03-08 17:58:00,
2013-03-08 13:03:00,53.3,21.0,28.20,NW,304,2.3,3.6,28,0.00,,,0.00,WSDL version 423,2013-03-08 18:03:00,
2013-03-08 13:08:00,53.3,20.5,28.20,WSW,258,2.5,4.3,27,0.00,,,0.00,WSDL version 423,2013-03-08 18:08:00,
2013-03-08 13:13:00,53.2,20.5,28.20,West,281,3.7,5.4,27,0.00,,,0.00,WSDL version 423,2013-03-08 18:13:00,
2013-03-08 13:18:00,53.4,20.3,28.20,NNW,328,3.6,5.8,27,0.00,,,0.00,WSDL version 423,2013-03-08 18:18:00,
2013-03-08 13:23:00,53.3,20.2,28.20,WNW,301,3.5,5.8,27,0.00,,,0.00,WSDL version 423,2013-03-08 18:23:00,
2013-03-08 13:28:00,53.4,20.1,28.20,WNW,298,3.5,5.6,26,0.00,,,0.00,WSDL version 423,2013-03-08 18:28:00,
2013-03-08 13:33:00,53.8,20.1,28.17,NW,313,3.1,5.6,26,0.00,,,0.00,WSDL version 423,2013-03-08 18:33:00,
2013-03-08 13:38:00,54.0,20.3,28.17,NNW,328,2.9,4.9,27,0.00,,,0.00,WSDL version 423,2013-03-08 18:38:00,
2013-03-08 13:43:00,54.4,21.1,28.17,NW,305,2.7,4.7,27,0.00,,,0.00,WSDL version 423,2013-03-08 18:43:00,
2013-03-08 13:48:00,54.5,21.2,28.17,WNW,298,3.4,4.3,27,0.00,,,0.00,WSDL version 423,2013-03-08 18:48:00,
2013-03-08 13:53:00,54.5,20.9,28.17,WNW,293,3.2,4.9,26,0.00,,,0.00,WSDL version 423,2013-03-08 18:53:00,
2013-03-08 13:58:00,54.6,21.3,28.17,NW,321,1.9,4.9,27,0.00,,,0.00,WSDL version 423,2013-03-08 18:58:00,
2013-03-08 14:03:00,55.1,21.7,28.17,NNW,330,2.2,4.0,27,0.00,,,0.00,WSDL version 423,2013-03-08 19:03:00,
2013-03-08 14:08:00,55.4,21.1,28.17,North,10,2.6,4.0,26,0.00,,,0.00,WSDL version 423,2013-03-08 19:08:00,
2013-03-08 14:13:00,55.3,21.2,28.17,NE,53,3.0,4.0,27,0.00,,,0.00,WSDL version 423,2013-03-08 19:13:00,
2013-03-08 14:18:00,55.5,21.2,28.14,NW,323,2.8,4.9,26,0.00,,,0.00,WSDL version 423,2013-03-08 19:18:00,
2013-03-08 14:23:00,55.4,21.3,28.14,WNW,298,3.3,4.9,26,0.00,,,0.00,WSDL version 423,2013-03-08 19:23:00,
2013-03-08 14:28:00,56.1,21.7,28.14,West,280,2.5,5.6,26,0.00,,,0.00,WSDL version 423,2013-03-08 19:28:00,
2013-03-08 14:33:00,56.4,21.9,28.14,WNW,290,3.4,5.6,26,0.00,,,0.00,WSDL version 423,2013-03-08 19:33:00,
2013-03-08 14:38:00,56.3,21.9,28.14,NNW,338,2.9,5.6,26,0.00,,,0.00,WSDL version 423,2013-03-08 19:38:00,
2013-03-08 14:43:00,56.5,22.0,28.14,NW,320,2.6,5.6,26,0.00,,,0.00,WSDL version 423,2013-03-08 19:43:00,
2013-03-08 14:48:00,56.4,21.9,28.14,North,360,1.8,5.4,26,0.00,,,0.00,WSDL version 423,2013-03-08 19:48:00,
2013-03-08 14:53:00,56.7,22.2,28.14,WNW,285,4.1,5.8,26,0.00,,,0.00,WSDL version 423,2013-03-08 19:53:00,
2013-03-08 14:58:00,56.8,22.3,28.14,NW,318,3.2,5.8,26,0.00,,,0.00,WSDL version 423,2013-03-08 19:58:00,
2013-03-08 15:03:00,56.7,22.2,28.14,NW,305,2.7,4.0,26,0.00,,,0.00,WSDL version 423,2013-03-08 20:03:00,
2013-03-08 15:08:00,56.8,22.3,28.14,NW,307,3.2,5.6,26,0.00,,,0.00,WSDL version 423,2013-03-08 20:08:00,
2013-03-08 15:13:00,57.1,22.4,28.14,WNW,300,3.3,5.6,26,0.00,,,0.00,WSDL version 423,2013-03-08 20:13:00,
2013-03-08 15:18:00,57.3,21.9,28.14,NW,313,3.9,5.4,26,0.00,,,0.00,WSDL version 423,2013-03-08 20:18:00,
2013-03-08 15:23:00,57.2,21.9,28.14,NW,318,3.0,5.4,25,0.00,,,0.00,WSDL version 423,2013-03-08 20:23:00,
2013-03-08 15:28:00,57.7,22.1,28.14,NW,310,2.8,4.9,25,0.00,,,0.00,WSDL version 423,2013-03-08 20:28:00,
2013-03-08 15:33:00,57.7,22.1,28.11,North,354,2.9,4.3,25,0.00,,,0.00,WSDL version 423,2013-03-08 20:33:00,
2013-03-08 15:38:00,57.7,22.2,28.11,NW,315,3.4,5.6,25,0.00,,,0.00,WSDL version 423,2013-03-08 20:38:00,
2013-03-08 15:43:00,57.7,22.1,28.11,West,273,3.6,7.2,25,0.00,,,0.00,WSDL version 423,2013-03-08 20:43:00,
2013-03-08 15:48:00,57.8,22.3,28.11,NW,308,3.3,7.2,25,0.00,,,0.00,WSDL version 423,2013-03-08 20:48:00,
2013-03-08 15:53:00,57.9,22.3,28.11,NNW,328,2.9,5.4,25,0.00,,,0.00,WSDL version 423,2013-03-08 20:53:00,
2013-03-08 15:58:00,58.0,22.4,28.11,North,6,2.7,4.7,25,0.00,,,0.00,WSDL version 423,2013-03-08 20:58:00,
2013-03-08 16:03:00,57.8,22.3,28.11,WNW,303,2.8,4.7,25,0.00,,,0.00,WSDL version 423,2013-03-08 21:03:00,
2013-03-08 16:08:00,57.9,22.3,28.11,NW,321,2.9,4.0,25,0.00,,,0.00,WSDL version 423,2013-03-08 21:08:00,
2013-03-08 16:13:00,58.0,22.4,28.11,WNW,293,2.7,4.3,25,0.00,,,0.00,WSDL version 423,2013-03-08 21:13:00,
2013-03-08 16:18:00,58.2,22.6,28.11,NW,307,2.6,4.3,25,0.00,,,0.00,WSDL version 423,2013-03-08 21:18:00,
2013-03-08 16:23:00,58.1,22.5,28.11,WNW,293,2.6,4.3,25,0.00,,,0.00,WSDL version 423,2013-03-08 21:23:00,
2013-03-08 16:28:00,58.3,22.6,28.11,North,349,1.5,4.3,25,0.00,,,0.00,WSDL version 423,2013-03-08 21:28:00,
2013-03-08 16:33:00,58.1,22.4,28.11,WNW,293,1.8,3.1,25,0.00,,,0.00,WSDL version 423,2013-03-08 21:33:00,
2013-03-08 16:38:00,58.0,22.4,28.11,WNW,288,2.6,3.1,25,0.00,,,0.00,WSDL version 423,2013-03-08 21:38:00,
2013-03-08 16:43:00,58.3,22.7,28.11,West,278,3.0,4.0,25,0.00,,,0.00,WSDL version 423,2013-03-08 21:43:00,
2013-03-08 16:48:00,58.4,22.7,28.11,NW,325,2.8,4.0,25,0.00,,,0.00,WSDL version 423,2013-03-08 21:48:00,
2013-03-08 16:53:00,58.1,22.5,28.11,WNW,293,2.5,4.9,25,0.00,,,0.00,WSDL version 423,2013-03-08 21:53:00,
2013-03-08 16:58:00,58.2,22.6,28.11,NW,305,2.3,4.9,25,0.00,,,0.00,WSDL version 423,2013-03-08 21:58:00,
2013-03-08 17:03:00,58.0,22.4,28.11,WNW,303,2.6,3.8,25,0.00,,,0.00,WSDL version 423,2013-03-08 22:03:00,
2013-03-08 17:08:00,57.9,22.3,28.11,West,264,3.2,4.0,25,0.00,,,0.00,WSDL version 423,2013-03-08 22:08:00,
2013-03-08 17:13:00,57.7,22.1,28.11,WNW,290,2.4,4.0,25,0.00,,,0.00,WSDL version 423,2013-03-08 22:13:00,
2013-03-08 17:18:00,57.7,22.1,28.11,NW,309,2.9,4.0,25,0.00,,,0.00,WSDL version 423,2013-03-08 22:18:00,
2013-03-08 17:23:00,57.2,21.7,28.11,WNW,285,2.7,4.9,25,0.00,,,0.00,WSDL version 423,2013-03-08 22:23:00,
2013-03-08 17:28:00,56.8,21.4,28.11,WNW,287,2.7,4.9,25,0.00,,,0.00,WSDL version 423,2013-03-08 22:28:00,
2013-03-08 17:33:00,56.7,21.3,28.11,WNW,288,3.7,4.9,25,0.00,,,0.00,WSDL version 423,2013-03-08 22:33:00,
2013-03-08 17:38:00,56.3,20.9,28.11,NNW,335,2.9,4.9,25,0.00,,,0.00,WSDL version 423,2013-03-08 22:38:00,
2013-03-08 17:43:00,55.9,20.6,28.11,North,357,2.9,4.3,25,0.00,,,0.00,WSDL version 423,2013-03-08 22:43:00,
2013-03-08 17:48:00,55.9,20.6,28.11,NNW,335,2.6,4.3,25,0.00,,,0.00,WSDL version 423,2013-03-08 22:48:00,
2013-03-08 17:53:00,56.3,21.0,28.11,NNW,335,2.3,4.3,25,0.00,,,0.00,WSDL version 423,2013-03-08 22:53:00,
2013-03-08 17:58:00,57.1,21.6,28.11,NNE,25,1.8,6.3,25,0.00,,,0.00,WSDL version 423,2013-03-08 22:58:00,
2013-03-08 18:03:00,57.5,21.6,28.14,North,3,1.8,6.3,25,0.00,,,0.00,WSDL version 423,2013-03-08 23:03:00,
2013-03-08 18:08:00,57.4,21.2,28.14,WNW,303,2.5,4.3,25,0.00,,,0.00,WSDL version 423,2013-03-08 23:08:00,
2013-03-08 18:13:00,56.1,20.7,28.14,West,267,0.3,4.3,25,0.00,,,0.00,WSDL version 423,2013-03-08 23:13:00,
2013-03-08 18:18:00,55.1,20.0,28.11,ENE,62,2.3,3.8,25,0.00,,,0.00,WSDL version 423,2013-03-08 23:18:00,
2013-03-08 18:23:00,54.9,20.2,28.11,WSW,255,0.0,3.8,26,0.00,,,0.00,WSDL version 423,2013-03-08 23:23:00,
2013-03-08 18:28:00,53.8,19.7,28.11,NW,315,0.2,3.1,26,0.00,,,0.00,WSDL version 423,2013-03-08 23:28:00,
2013-03-08 18:33:00,52.3,18.5,28.14,ENE,65,1.5,2.2,26,0.00,,,0.00,WSDL version 423,2013-03-08 23:33:00,
2013-03-08 18:38:00,51.1,17.4,28.14,ESE,107,1.6,2.5,26,0.00,,,0.00,WSDL version 423,2013-03-08 23:38:00,
2013-03-08 18:43:00,50.2,16.8,28.14,ENE,73,1.7,2.9,27,0.00,,,0.00,WSDL version 423,2013-03-08 23:43:00,
2013-03-08 18:48:00,49.5,16.9,28.14,ESE,103,1.8,2.9,27,0.00,,,0.00,WSDL version 423,2013-03-08 23:48:00,
2013-03-08 18:53:00,49.0,16.5,28.14,East,87,2.2,2.7,27,0.00,,,0.00,WSDL version 423,2013-03-08 23:53:00,
2013-03-08 18:58:00,48.6,16.1,28.14,SE,128,0.9,2.7,27,0.00,,,0.00,WSDL version 423,2013-03-08 23:58:00,
2013-03-08 19:03:00,47.9,15.5,28.14,SSW,203,0.8,1.6,27,0.00,,,0.00,WSDL version 423,2013-03-09 00:03:00,
2013-03-08 19:08:00,47.4,15.1,28.14,East,98,1.5,2.2,27,0.00,,,0.00,WSDL version 423,2013-03-09 00:08:00,
2013-03-08 19:13:00,46.9,14.6,28.14,SE,141,0.0,2.2,27,0.00,,,0.00,WSDL version 423,2013-03-09 00:13:00,
2013-03-08 19:18:00,46.4,14.7,28.14,ENE,60,0.2,1.6,28,0.00,,,0.00,WSDL version 423,2013-03-09 00:18:00,
2013-03-08 19:23:00,46.0,14.7,28.14,ESE,108,1.4,2.5,28,0.00,,,0.00,WSDL version 423,2013-03-09 00:23:00,
2013-03-08 19:28:00,45.8,14.6,28.14,NNE,13,0.2,2.5,28,0.00,,,0.00,WSDL version 423,2013-03-09 00:28:00,
2013-03-08 19:33:00,45.1,14.0,28.14,ESE,123,1.6,2.5,28,0.00,,,0.00,WSDL version 423,2013-03-09 00:33:00,
2013-03-08 19:38:00,44.6,13.7,28.14,ESE,115,0.4,2.2,29,0.00,,,0.00,WSDL version 423,2013-03-09 00:38:00,
2013-03-08 19:43:00,44.2,14.0,28.14,ESE,105,1.6,2.5,29,0.00,,,0.00,WSDL version 423,2013-03-09 00:43:00,
2013-03-08 19:48:00,43.9,13.7,28.17,ENE,70,1.1,2.5,29,0.00,,,0.00,WSDL version 423,2013-03-09 00:48:00,
2013-03-08 19:53:00,43.6,13.5,28.17,NE,45,0.2,2.2,29,0.00,,,0.00,WSDL version 423,2013-03-09 00:53:00,
2013-03-08 19:58:00,43.2,13.4,28.17,NE,45,1.3,3.1,30,0.00,,,0.00,WSDL version 423,2013-03-09 00:58:00,
2013-03-08 20:03:00,42.7,13.6,28.14,WSW,245,0.1,3.1,31,0.00,,,0.00,WSDL version 423,2013-03-09 01:03:00,
2013-03-08 20:08:00,42.0,14.0,28.14,East,95,0.5,2.7,32,0.00,,,0.00,WSDL version 423,2013-03-09 01:08:00,
2013-03-08 20:13:00,41.5,13.9,28.14,NE,42,1.8,2.7,32,0.00,,,0.00,WSDL version 423,2013-03-09 01:13:00,
2013-03-08 20:18:00,41.6,13.9,28.14,SSW,195,0.3,2.7,32,0.00,,,0.00,WSDL version 423,2013-03-09 01:18:00,
2013-03-08 20:23:00,41.5,13.8,28.14,SW,219,2.0,2.7,32,0.00,,,0.00,WSDL version 423,2013-03-09 01:23:00,
2013-03-08 20:28:00,41.1,13.9,28.14,East,90,1.4,2.7,33,0.00,,,0.00,WSDL version 423,2013-03-09 01:28:00,
2013-03-08 20:33:00,41.0,14.1,28.14,SSW,193,1.4,2.5,33,0.00,,,0.00,WSDL version 423,2013-03-09 01:33:00,
2013-03-08 20:38:00,40.8,13.9,28.14,ENE,62,0.1,2.5,33,0.00,,,0.00,WSDL version 423,2013-03-09 01:38:00,
2013-03-08 20:43:00,40.8,14.2,28.14,North,350,1.3,2.0,34,0.00,,,0.00,WSDL version 423,2013-03-09 01:43:00,
2013-03-08 20:48:00,40.4,14.7,28.17,SSE,158,0.1,2.0,35,0.00,,,0.00,WSDL version 423,2013-03-09 01:48:00,
2013-03-08 20:53:00,39.7,14.3,28.17,South,180,0.0,1.6,35,0.00,,,0.00,WSDL version 423,2013-03-09 01:53:00,
2013-03-08 20:58:00,39.0,14.7,28.17,ENE,71,1.7,2.5,37,0.00,,,0.00,WSDL version 423,2013-03-09 01:58:00,
2013-03-08 21:03:00,38.5,15.0,28.17,SE,129,0.0,2.5,38,0.00,,,0.00,WSDL version 423,2013-03-09 02:03:00,
2013-03-08 21:08:00,38.2,15.1,28.17,NNE,23,0.0,1.6,39,0.00,,,0.00,WSDL version 423,2013-03-09 02:08:00,
2013-03-08 21:13:00,37.9,15.1,28.17,ENE,76,0.0,1.3,39,0.00,,,0.00,WSDL version 423,2013-03-09 02:13:00,
2013-03-08 21:18:00,37.6,14.8,28.17,NW,312,0.7,1.6,39,0.00,,,0.00,WSDL version 423,2013-03-09 02:18:00,
2013-03-08 21:23:00,37.2,15.0,28.17,SW,225,0.0,1.6,40,0.00,,,0.00,WSDL version 423,2013-03-09 02:23:00,
2013-03-08 21:28:00,36.8,14.7,28.17,ESE,109,0.8,1.3,40,0.00,,,0.00,WSDL version 423,2013-03-09 02:28:00,
2013-03-08 21:33:00,36.6,14.5,28.17,South,188,0.0,1.3,40,0.00,,,0.00,WSDL version 423,2013-03-09 02:33:00,
2013-03-08 21:38:00,36.2,14.5,28.17,NE,48,0.0,1.3,41,0.00,,,0.00,WSDL version 423,2013-03-09 02:38:00,
2013-03-08 21:43:00,35.9,14.5,28.17,ESE,108,0.0,1.3,41,0.00,,,0.00,WSDL version 423,2013-03-09 02:43:00,
2013-03-08 21:48:00,35.6,14.4,28.17,ENE,68,1.3,2.0,42,0.00,,,0.00,WSDL version 423,2013-03-09 02:48:00,
2013-03-08 21:53:00,35.5,15.1,28.17,ENE,68,0.0,2.0,43,0.00,,,0.00,WSDL version 423,2013-03-09 02:53:00,
2013-03-08 21:58:00,35.2,14.9,28.17,ENE,68,0.0,0.0,43,0.00,,,0.00,WSDL version 423,2013-03-09 02:58:00,
2013-03-08 22:03:00,34.9,14.7,28.17,East,82,0.9,2.0,43,0.00,,,0.00,WSDL version 423,2013-03-09 03:03:00,
2013-03-08 22:08:00,34.6,14.6,28.17,SE,132,0.0,2.0,44,0.00,,,0.00,WSDL version 423,2013-03-09 03:08:00,
2013-03-08 22:13:00,34.4,14.3,28.17,SSE,158,0.0,0.0,43,0.00,,,0.00,WSDL version 423,2013-03-09 03:13:00,
2013-03-08 22:18:00,34.0,14.2,28.17,SE,143,0.0,0.0,44,0.00,,,0.00,WSDL version 423,2013-03-09 03:18:00,
2013-03-08 22:23:00,33.8,14.2,28.17,East,83,0.0,0.0,44,0.00,,,0.00,WSDL version 423,2013-03-09 03:23:00,
2013-03-08 22:28:00,33.7,14.3,28.17,ENE,68,0.0,0.0,45,0.00,,,0.00,WSDL version 423,2013-03-09 03:28:00,
2013-03-08 22:33:00,33.6,14.6,28.17,ENE,73,0.9,1.1,46,0.00,,,0.00,WSDL version 423,2013-03-09 03:33:00,
2013-03-08 22:38:00,33.3,14.7,28.17,ESE,106,1.1,1.3,46,0.00,,,0.00,WSDL version 423,2013-03-09 03:38:00,
2013-03-08 22:43:00,33.3,14.8,28.17,ENE,72,0.5,1.3,46,0.00,,,0.00,WSDL version 423,2013-03-09 03:43:00,
2013-03-08 22:48:00,33.3,15.0,28.17,NNW,338,0.0,1.3,46,0.00,,,0.00,WSDL version 423,2013-03-09 03:48:00,
2013-03-08 22:53:00,33.1,15.2,28.17,NNW,338,0.0,0.0,48,0.00,,,0.00,WSDL version 423,2013-03-09 03:53:00,
2013-03-08 22:58:00,32.8,14.9,28.17,West,270,0.0,0.0,47,0.00,,,0.00,WSDL version 423,2013-03-09 03:58:00,
2013-03-08 23:03:00,32.5,14.9,28.17,ENE,77,0.0,0.0,48,0.00,,,0.00,WSDL version 423,2013-03-09 04:03:00,
2013-03-08 23:08:00,32.2,14.7,28.17,SSE,158,0.0,0.0,48,0.00,,,0.00,WSDL version 423,2013-03-09 04:08:00,
2013-03-08 23:13:00,32.0,16.5,28.17,NW,319,0.0,0.0,49,0.00,,,0.00,WSDL version 423,2013-03-09 04:13:00,
2013-03-08 23:18:00,31.9,16.7,28.17,NNE,16,0.0,0.0,49,0.00,,,0.00,WSDL version 423,2013-03-09 04:18:00,
2013-03-08 23:23:00,31.6,16.8,28.17,ENE,68,0.9,1.3,50,0.00,,,0.00,WSDL version 423,2013-03-09 04:23:00,
2013-03-08 23:28:00,31.4,16.8,28.17,ENE,71,0.1,1.6,50,0.00,,,0.00,WSDL version 423,2013-03-09 04:28:00,
2013-03-08 23:33:00,31.3,16.6,28.17,East,90,0.4,1.6,50,0.00,,,0.00,WSDL version 423,2013-03-09 04:33:00,
2013-03-08 23:38:00,31.3,16.9,28.17,ENE,73,0.2,1.3,51,0.00,,,0.00,WSDL version 423,2013-03-09 04:38:00,
2013-03-08 23:43:00,31.1,16.9,28.17,East,90,0.0,1.3,51,0.00,,,0.00,WSDL version 423,2013-03-09 04:43:00,
2013-03-08 23:48:00,31.1,16.9,28.17,SSE,158,0.0,1.3,51,0.00,,,0.00,WSDL version 423,2013-03-09 04:48:00,
2013-03-08 23:53:00,31.1,16.9,28.17,SSE,158,0.0,0.0,51,0.00,,,0.00,WSDL version 423,2013-03-09 04:53:00,
2013-03-08 23:58:00,30.8,17.0,28.17,SE,143,0.0,0.0,52,0.00,,,0.00,WSDL version 423,2013-03-09 04:58:00,